Time;durP1;ratioP1;P1;durP2;ratioP2;P2;SDS_P1;SDS_P2;PMS_P1;PMS_P2;Temp;Humidity;BMP_temperature;BMP_pressure;BME280_temperature;BME280_humidity;BME280_pressure;Samples;Min_cycle;Max_cycle;Signal;HPM_P1;HPM_P2
2022/03/20 00:00:13;;;;;;;5.60;2.55;;;;;;;5.07;54.64;103155.59;5037578;28;20132;-87
2022/03/20 00:02:39;;;;;;;3.85;2.50;;;;;;;5.04;55.59;103155.84;5054043;28;20032;-87
2022/03/20 00:05:05;;;;;;;3.58;2.35;;;;;;;4.99;55.76;103152.69;5054334;28;20028;-88
2022/03/20 00:07:34;;;;;;;3.78;2.40;;;;;;;4.95;56.23;103140.44;5055262;28;20056;-88
2022/03/20 00:10:04;;;;;;;4.72;2.83;;;;;;;4.93;56.01;103137.00;5055352;28;20037;-87
2022/03/20 00:12:29;;;;;;;4.05;3.05;;;;;;;4.92;56.41;103138.00;5054038;28;20135;-87
2022/03/20 00:14:55;;;;;;;5.53;3.03;;;;;;;4.89;57.03;103139.09;5004716;28;20060;-87
2022/03/20 00:17:21;;;;;;;4.07;2.92;;;;;;;4.86;55.84;103135.81;5037556;28;20041;-87
2022/03/20 00:19:47;;;;;;;3.92;2.75;;;;;;;4.82;57.27;103132.50;5054064;28;20078;-87
2022/03/20 00:22:13;;;;;;;4.22;2.65;;;;;;;4.81;56.58;103130.78;5037500;28;20040;-87
2022/03/20 00:24:42;;;;;;;3.53;2.70;;;;;;;4.74;56.05;103122.34;5054733;28;20115;-87
2022/03/20 00:27:14;;;;;;;3.47;2.55;;;;;;;4.70;56.39;103114.63;5054541;28;20035;-87
2022/03/20 00:29:40;;;;;;;4.45;2.70;;;;;;;4.64;57.10;103118.66;5053980;28;20469;-87
2022/03/20 00:32:08;;;;;;;3.53;2.47;;;;;;;4.59;57.47;103115.47;5036356;28;20111;-87
2022/03/20 00:34:34;;;;;;;3.25;2.65;;;;;;;4.59;58.13;103107.41;5036703;28;20044;-88
2022/03/20 00:36:59;;;;;;;3.00;2.40;;;;;;;4.56;57.55;103104.94;5055190;28;20033;-88
2022/03/20 00:39:27;;;;;;;3.05;2.70;;;;;;;4.50;57.83;103100.94;5020468;28;20037;-88
2022/03/20 00:41:53;;;;;;;4.38;2.83;;;;;;;4.48;57.48;103094.81;5004728;28;20033;-87
2022/03/20 00:44:19;;;;;;;4.60;3.00;;;;;;;4.45;55.20;103083.44;5054396;28;20033;-87
2022/03/20 00:46:44;;;;;;;4.03;2.60;;;;;;;4.39;57.58;103071.34;5054436;28;20033;-87
2022/03/20 00:49:10;;;;;;;5.20;2.80;;;;;;;4.33;57.37;103077.19;5036729;28;20040;-87
2022/03/20 00:51:36;;;;;;;4.65;3.35;;;;;;;4.31;57.53;103080.00;5053021;28;20477;-87
2022/03/20 00:54:01;;;;;;;5.18;3.50;;;;;;;4.27;57.85;103073.16;5053401;28;20029;-88
2022/03/20 00:56:27;;;;;;;4.88;3.70;;;;;;;4.23;57.69;103066.28;5019840;28;20057;-87
2022/03/20 00:58:55;;;;;;;5.13;3.50;;;;;;;4.18;57.62;103060.44;5020074;28;20393;-87
2022/03/20 01:01:20;;;;;;;4.22;3.25;;;;;;;4.15;59.29;103068.72;5036536;28;20087;-88
2022/03/20 01:03:46;;;;;;;6.65;3.95;;;;;;;4.17;58.53;103066.78;5054615;28;20465;-87
2022/03/20 01:06:12;;;;;;;6.25;4.10;;;;;;;4.11;58.49;103064.56;5053083;28;20381;-87
2022/03/20 01:08:41;;;;;;;5.32;3.90;;;;;;;4.09;58.70;103063.81;5035993;28;20029;-87
2022/03/20 01:11:08;;;;;;;8.02;4.10;;;;;;;4.05;59.13;103057.84;5054244;28;20100;-87
2022/03/20 01:13:34;;;;;;;6.55;4.30;;;;;;;4.02;58.97;103060.75;5052859;28;20542;-88
2022/03/20 01:16:00;;;;;;;6.47;4.07;;;;;;;4.01;58.37;103051.81;5053680;28;20116;-88
2022/03/20 01:18:26;;;;;;;7.10;4.10;;;;;;;4.02;56.45;103050.03;5052557;28;20055;-87
2022/03/20 01:20:54;;;;;;;8.43;4.85;;;;;;;3.96;58.48;103045.97;5053710;28;20423;-88
2022/03/20 01:23:21;;;;;;;7.47;4.68;;;;;;;3.91;59.84;103042.75;5035972;28;20029;-87
2022/03/20 01:25:51;;;;;;;8.65;4.97;;;;;;;3.89;58.34;103039.34;5052817;28;20040;-88
2022/03/20 01:28:17;;;;;;;7.30;4.80;;;;;;;3.84;59.58;103030.81;5052292;28;20028;-88
2022/03/20 01:30:43;;;;;;;8.50;4.95;;;;;;;3.84;59.07;103028.97;5054089;28;20025;-88
2022/03/20 01:33:11;;;;;;;8.68;5.60;;;;;;;3.81;59.77;103017.59;5035861;28;20028;-87
2022/03/20 01:35:37;;;;;;;6.10;4.78;;;;;;;3.78;58.43;103025.88;5052455;28;20040;-88
2022/03/20 01:38:05;;;;;;;6.97;4.97;;;;;;;3.75;59.53;103021.63;5053200;28;20033;-88
2022/03/20 01:40:30;;;;;;;7.15;5.00;;;;;;;3.69;59.76;103011.31;5053688;28;20033;-87
2022/03/20 01:42:56;;;;;;;6.80;4.60;;;;;;;3.68;60.43;103001.56;5034813;28;20384;-87
2022/03/20 01:45:23;;;;;;;7.95;4.88;;;;;;;3.70;56.97;102999.63;5052393;28;20087;-87
2022/03/20 01:47:50;;;;;;;7.47;5.43;;;;;;;3.64;60.37;102998.25;5052214;28;20461;-87
2022/03/20 01:50:21;;;;;;;7.53;5.03;;;;;;;3.60;57.84;102988.75;5052596;28;20501;-87
2022/03/20 01:52:48;;;;;;;9.90;6.30;;;;;;;3.58;60.57;102982.63;5036103;28;20043;-87
2022/03/20 01:55:16;;;;;;;8.57;6.18;;;;;;;3.55;60.52;102977.47;5053607;28;20100;-87
2022/03/20 01:57:44;;;;;;;8.60;5.90;;;;;;;3.54;60.87;102981.13;5053926;28;20035;-86
2022/03/20 02:00:12;;;;;;;9.82;6.80;;;;;;;3.52;61.65;102983.09;5019946;28;20032;-87
2022/03/20 02:02:40;;;;;;;8.05;6.25;;;;;;;3.48;61.50;102977.13;5036036;28;20453;-87
2022/03/20 02:05:10;;;;;;;9.63;6.03;;;;;;;3.45;61.59;102982.69;5035732;28;20055;-87
2022/03/20 02:07:37;;;;;;;7.88;5.75;;;;;;;3.40;62.02;102974.13;5019219;28;20083;-87
2022/03/20 02:10:06;;;;;;;11.93;7.43;;;;;;;3.36;61.00;102963.75;5053738;28;20035;-87
2022/03/20 02:12:32;;;;;;;10.32;7.13;;;;;;;3.33;61.84;102963.00;5051804;28;20415;-87
2022/03/20 02:15:01;;;;;;;9.73;6.90;;;;;;;3.35;60.56;102960.19;5035236;28;20029;-87
2022/03/20 02:17:28;;;;;;;10.63;7.13;;;;;;;3.32;61.95;102964.00;5052028;28;20021;-87
2022/03/20 02:19:56;;;;;;;10.02;7.45;;;;;;;3.27;61.71;102950.06;5053888;28;20036;-87
2022/03/20 02:22:21;;;;;;;9.82;7.50;;;;;;;3.23;63.10;102953.94;5051873;28;20056;-87
2022/03/20 02:24:49;;;;;;;10.88;8.02;;;;;;;3.24;61.92;102952.13;5053271;28;20091;-87
2022/03/20 02:27:23;;;;;;;10.90;7.80;;;;;;;3.23;60.70;102947.72;5051813;28;20094;-87
2022/03/20 02:29:54;;;;;;;11.38;8.35;;;;;;;3.20;60.11;102953.31;5035275;28;20089;-87
2022/03/20 02:32:23;;;;;;;10.50;7.68;;;;;;;3.14;61.74;102942.09;5052278;28;20029;-87
2022/03/20 02:34:50;;;;;;;9.60;7.32;;;;;;;3.14;60.32;102939.41;5018702;28;20039;-88
2022/03/20 02:37:21;;;;;;;11.82;8.63;;;;;;;3.14;61.30;102930.47;5051859;28;20033;-88
2022/03/20 02:39:48;;;;;;;12.52;8.85;;;;;;;3.10;62.27;102927.19;5052988;28;20055;-87
2022/03/20 02:42:15;;;;;;;12.75;9.38;;;;;;;3.12;61.00;102935.13;5035006;28;20090;-86
2022/03/20 02:44:57;;;;;;;12.18;8.98;;;;;;;3.10;59.68;102929.00;5019447;28;20033;-87
2022/03/20 02:47:31;;;;;;;15.18;10.02;;;;;;;3.08;60.94;102926.44;5051662;28;20531;-87
2022/03/20 02:50:00;;;;;;;16.30;10.55;;;;;;;3.06;61.55;102920.34;5035420;28;20439;-88
2022/03/20 02:52:32;;;;;;;16.38;11.10;;;;;;;3.05;62.60;102913.25;5051943;28;20441;-87
2022/03/20 02:55:02;;;;;;;15.65;11.60;;;;;;;3.09;60.92;102913.91;5037053;28;20075;-87
2022/03/20 02:57:29;;;;;;;16.55;11.57;;;;;;;3.14;58.70;102919.75;5055661;28;20033;-86
2022/03/20 03:00:00;;;;;;;16.30;11.90;;;;;;;3.08;61.64;102915.69;5038905;28;20029;-87
2022/03/20 03:02:26;;;;;;;15.50;10.73;;;;;;;3.05;61.47;102917.78;5039566;28;20119;-87
2022/03/20 03:04:51;;;;;;;15.45;10.68;;;;;;;3.02;62.05;102916.16;5055249;28;20036;-87
2022/03/20 03:07:17;;;;;;;14.88;10.85;;;;;;;3.02;62.05;102909.97;5055160;28;20025;-87
2022/03/20 03:12:26;;;;;;;16.35;11.30;;;;;;;2.99;61.16;102908.34;5041461;28;20050;-86
2022/03/20 03:17:36;;;;;;;15.75;11.13;;;;;;;2.94;62.37;102892.63;5041845;28;20048;-86
2022/03/20 03:20:02;;;;;;;19.02;13.30;;;;;;;2.95;62.36;102891.66;5021955;28;20033;-87
2022/03/20 03:22:27;;;;;;;17.40;12.10;;;;;;;2.94;61.58;102889.09;5038350;28;20029;-87
2022/03/20 03:24:54;;;;;;;18.17;12.10;;;;;;;2.93;62.02;102882.84;5038383;28;20036;-87
2022/03/20 03:27:20;;;;;;;17.58;12.98;;;;;;;2.90;62.39;102877.72;5056132;28;20029;-87
2022/03/20 03:29:45;;;;;;;17.75;11.73;;;;;;;2.89;62.45;102876.00;5038721;28;20060;-87
2022/03/20 03:32:11;;;;;;;14.93;10.90;;;;;;;2.85;62.62;102873.66;5056043;28;20479;-87
2022/03/20 03:37:22;;;;;;;18.67;14.05;;;;;;;2.85;61.65;102862.94;5027043;28;20106;-87
2022/03/20 03:39:48;;;;;;;20.73;14.05;;;;;;;2.83;62.93;102865.72;5038462;28;20060;-87
2022/03/20 03:42:14;;;;;;;19.80;14.10;;;;;;;2.80;62.76;102860.59;5056464;28;20118;-87
2022/03/20 03:44:39;;;;;;;18.05;12.93;;;;;;;2.78;61.86;102857.19;5055835;28;20036;-87
2022/03/20 03:47:06;;;;;;;15.63;11.18;;;;;;;2.73;61.75;102845.94;5037835;28;20052;-87
2022/03/20 03:49:33;;;;;;;16.27;12.15;;;;;;;2.70;61.85;102847.06;5054482;28;20116;-87
2022/03/20 03:52:00;;;;;;;16.48;11.88;;;;;;;2.66;62.64;102832.16;5038305;28;20358;-87
2022/03/20 03:54:25;;;;;;;14.65;11.23;;;;;;;2.62;62.70;102847.59;5055657;28;20108;-87
2022/03/20 03:56:51;;;;;;;16.15;11.52;;;;;;;2.59;62.25;102842.47;5037496;28;20053;-88
2022/03/20 03:59:16;;;;;;;18.35;12.30;;;;;;;2.58;62.73;102847.94;5037786;28;20440;-87
2022/03/20 04:01:42;;;;;;;16.40;11.85;;;;;;;2.57;62.47;102835.50;5037627;28;20056;-87
2022/03/20 04:04:07;;;;;;;15.73;11.18;;;;;;;2.54;62.75;102836.63;5055479;28;20508;-87
2022/03/20 04:06:34;;;;;;;15.60;11.13;;;;;;;2.51;62.74;102835.97;5037300;28;20035;-87
2022/03/20 04:09:00;;;;;;;18.02;12.60;;;;;;;2.44;62.31;102820.34;5038449;28;20032;-87
2022/03/20 04:11:25;;;;;;;17.70;12.80;;;;;;;2.43;62.27;102823.16;5054092;28;20457;-87
2022/03/20 04:13:51;;;;;;;17.58;12.52;;;;;;;2.39;62.83;102813.63;5037677;28;20033;-86
2022/03/20 04:16:18;;;;;;;18.80;13.52;;;;;;;2.39;61.52;102809.13;5037444;28;20469;-87
2022/03/20 04:18:43;;;;;;;19.83;13.50;;;;;;;2.38;60.49;102798.53;5038433;28;20044;-86
2022/03/20 04:21:10;;;;;;;22.13;16.33;;;;;;;2.43;62.38;102801.72;5037762;28;20033;-87
2022/03/20 04:23:49;;;;;;;20.58;15.07;;;;;;;2.39;62.60;102797.53;5021497;28;20052;-87
2022/03/20 04:26:17;;;;;;;20.52;14.77;;;;;;;2.33;63.30;102800.69;5039154;28;20036;-87
2022/03/20 04:28:44;;;;;;;17.55;12.80;;;;;;;2.30;63.04;102790.19;5053400;28;20029;-87
2022/03/20 04:31:15;;;;;;;17.23;13.13;;;;;;;2.24;64.36;102783.47;5055204;28;20081;-87
2022/03/20 04:33:51;;;;;;;16.05;12.50;;;;;;;2.19;63.37;102778.44;5020766;28;20036;-87
2022/03/20 04:36:21;;;;;;;20.27;14.27;;;;;;;2.17;64.33;102769.69;5054455;28;20438;-87
2022/03/20 04:38:47;;;;;;;19.48;13.63;;;;;;;2.15;64.30;102765.41;5036824;28;20029;-87
2022/03/20 04:41:12;;;;;;;18.42;12.88;;;;;;;2.13;64.76;102768.19;5037507;28;20187;-87
2022/03/20 04:43:37;;;;;;;18.75;13.23;;;;;;;2.10;64.55;102774.63;5037459;28;20492;-87
2022/03/20 04:46:03;;;;;;;17.17;12.30;;;;;;;2.05;64.16;102775.91;5053729;28;20599;-87
2022/03/20 04:59:27;;;;;;;17.33;12.48;;;;;;;1.90;65.17;102756.47;5054485;28;20079;-87
2022/03/20 05:01:52;;;;;;;20.30;14.93;;;;;;;1.86;66.63;102752.28;5036492;28;20060;-87
2022/03/20 05:04:18;;;;;;;18.38;13.13;;;;;;;1.85;65.50;102751.44;5036556;28;20037;-87
2022/03/20 05:06:43;;;;;;;16.92;12.55;;;;;;;1.82;64.76;102743.66;5036300;28;20044;-87
2022/03/20 05:14:38;;;;;;;16.05;12.40;;;;;;;1.71;65.35;102738.22;5054780;28;20110;-87
2022/03/20 05:17:05;;;;;;;17.63;12.85;;;;;;;1.67;65.50;102732.22;5036250;28;20074;-87
2022/03/20 05:19:33;;;;;;;19.10;13.93;;;;;;;1.69;65.74;102741.00;5054059;28;20029;-87
2022/03/20 05:21:58;;;;;;;16.25;12.63;;;;;;;1.67;65.89;102728.69;5054597;28;20048;-87
2022/03/20 05:24:24;;;;;;;18.42;12.95;;;;;;;1.64;65.10;102735.13;5036582;28;20107;-87
2022/03/20 05:26:49;;;;;;;18.10;13.73;;;;;;;1.62;65.23;102726.34;5036603;28;20438;-87
2022/03/20 05:29:15;;;;;;;17.65;12.93;;;;;;;1.57;65.66;102726.69;5036406;28;20420;-87
2022/03/20 05:31:40;;;;;;;17.08;12.95;;;;;;;1.56;65.75;102730.31;5053686;28;20029;-87
2022/03/20 05:34:06;;;;;;;17.73;12.73;;;;;;;1.51;65.60;102724.44;5036733;28;20033;-87
2022/03/20 05:36:31;;;;;;;17.27;12.75;;;;;;;1.50;66.27;102721.88;5053817;28;20453;-87
2022/03/20 05:38:57;;;;;;;17.02;12.48;;;;;;;1.49;65.88;102723.72;5053526;28;20033;-87
2022/03/20 05:44:06;;;;;;;16.42;12.57;;;;;;;1.50;65.29;102714.69;5054291;28;20044;-87
2022/03/20 05:46:32;;;;;;;16.70;12.07;;;;;;;1.49;65.19;102704.09;5035862;28;20033;-87
2022/03/20 05:48:57;;;;;;;18.42;13.00;;;;;;;1.48;65.13;102702.41;5019006;28;20400;-87
2022/03/20 05:51:24;;;;;;;18.83;14.60;;;;;;;1.47;65.62;102703.38;5053316;28;20025;-87
2022/03/20 05:53:49;;;;;;;21.20;14.73;;;;;;;1.48;65.92;102699.75;5035672;28;20037;-87
2022/03/20 05:58:58;;;;;;;18.60;13.15;;;;;;;1.50;65.53;102706.69;5038887;28;20052;-87
2022/03/20 06:01:27;;;;;;;18.75;13.80;;;;;;;1.50;65.77;102703.16;5053784;28;20028;-86
2022/03/20 06:03:53;;;;;;;18.60;13.98;;;;;;;1.53;65.80;102703.78;5053262;28;20048;-87
2022/03/20 06:06:19;;;;;;;19.35;14.23;;;;;;;1.54;65.59;102700.16;5053494;28;20116;-87
2022/03/20 06:08:44;;;;;;;20.38;13.82;;;;;;;1.55;65.28;102699.19;5035942;28;20174;-88
2022/03/20 06:11:09;;;;;;;19.80;15.23;;;;;;;1.57;65.47;102705.28;5019097;28;20036;-88
2022/03/20 06:13:35;;;;;;;21.23;14.63;;;;;;;1.62;64.84;102696.06;5019084;28;20036;-87
2022/03/20 06:16:01;;;;;;;17.73;13.40;;;;;;;1.64;64.27;102697.66;5052324;28;20455;-87
2022/03/20 06:18:27;;;;;;;17.08;12.93;;;;;;;1.67;64.71;102693.91;5053310;28;20033;-87
2022/03/20 06:20:53;;;;;;;17.20;13.02;;;;;;;1.67;65.12;102694.78;5035623;28;20035;-87
2022/03/20 06:23:19;;;;;;;16.63;12.02;;;;;;;1.71;64.02;102693.59;5019664;28;20056;-87
2022/03/20 06:25:45;;;;;;;20.38;14.82;;;;;;;1.78;63.82;102698.50;5035609;28;20025;-84
2022/03/20 06:28:10;;;;;;;19.85;14.18;;;;;;;1.82;64.16;102690.13;5053178;28;20099;-84
2022/03/20 06:30:36;;;;;;;18.15;12.90;;;;;;;1.86;63.13;102696.97;5038858;28;20044;-85
2022/03/20 06:33:02;;;;;;;18.13;13.73;;;;;;;1.97;62.58;102700.66;5055905;28;20029;-84
2022/03/20 06:35:28;;;;;;;18.77;13.38;;;;;;;2.06;62.32;102699.97;5039357;28;20033;-84
2022/03/20 06:37:53;;;;;;;18.90;13.25;;;;;;;2.17;61.18;102696.50;5056035;28;20384;-84
2022/03/20 06:40:20;;;;;;;20.55;15.30;;;;;;;2.35;61.13;102689.75;5039343;28;20444;-84
2022/03/20 06:42:45;;;;;;;20.00;14.98;;;;;;;2.54;60.37;102689.22;5038885;28;20079;-84
2022/03/20 06:45:12;;;;;;;22.20;15.68;;;;;;;2.74;59.15;102685.00;5039088;28;20435;-84
2022/03/20 06:47:40;;;;;;;18.92;13.68;;;;;;;2.87;58.71;102668.81;5056843;28;20029;-84
2022/03/20 06:50:07;;;;;;;18.08;12.75;;;;;;;3.01;58.01;102666.88;5057395;28;20040;-86
2022/03/20 06:52:33;;;;;;;18.17;12.90;;;;;;;3.15;58.19;102674.69;5056476;28;20048;-84
2022/03/20 06:55:00;;;;;;;17.63;12.50;;;;;;;3.28;57.81;102666.53;5038889;28;20385;-85
2022/03/20 06:57:26;;;;;;;18.58;13.30;;;;;;;3.41;57.16;102653.84;5039570;28;20029;-84
2022/03/20 06:59:53;;;;;;;19.80;14.00;;;;;;;3.56;57.01;102661.59;5057041;28;20480;-84
2022/03/20 07:02:19;;;;;;;19.58;13.85;;;;;;;3.68;56.36;102660.63;5022593;28;20595;-84
2022/03/20 07:04:47;;;;;;;18.77;13.48;;;;;;;3.78;56.24;102656.19;5038694;28;20036;-84
2022/03/20 07:07:16;;;;;;;18.30;12.65;;;;;;;3.85;55.83;102645.78;5056507;28;20524;-84
2022/03/20 07:09:41;;;;;;;17.65;12.55;;;;;;;3.92;55.30;102643.47;5039028;28;20071;-83
2022/03/20 07:12:08;;;;;;;19.17;13.38;;;;;;;4.01;55.08;102648.91;5056721;28;20075;-84
2022/03/20 07:14:34;;;;;;;20.00;13.70;;;;;;;4.06;55.10;102642.28;5056456;28;20094;-84
2022/03/20 07:17:01;;;;;;;20.08;14.13;;;;;;;4.11;54.80;102640.94;5038910;28;20029;-84
2022/03/20 07:19:27;;;;;;;19.17;13.70;;;;;;;4.16;54.28;102633.34;5039072;28;20033;-84
2022/03/20 07:21:52;;;;;;;17.15;12.43;;;;;;;4.22;54.22;102631.97;5056607;28;20064;-84
2022/03/20 07:24:18;;;;;;;19.25;13.45;;;;;;;4.27;53.33;102626.22;5056267;28;20389;-84
2022/03/20 07:29:30;;;;;;;19.17;13.38;;;;;;;4.43;52.49;102605.13;5041370;28;20381;-84
2022/03/20 07:31:57;;;;;;;19.10;13.25;;;;;;;4.52;52.41;102609.69;5022204;28;20132;-83
2022/03/20 07:34:23;;;;;;;19.13;13.55;;;;;;;4.65;51.90;102609.50;5038268;28;20063;-83
2022/03/20 07:36:50;;;;;;;21.95;15.57;;;;;;;4.81;51.27;102608.13;5055857;28;20032;-83
2022/03/20 07:39:15;;;;;;;21.70;15.00;;;;;;;4.80;50.92;102610.00;5055984;28;20059;-84
2022/03/20 07:41:41;;;;;;;21.95;15.35;;;;;;;4.82;50.34;102610.69;5036691;28;20110;-84
2022/03/20 07:44:07;;;;;;;22.48;15.52;;;;;;;4.80;50.04;102617.19;5056390;28;20037;-84
2022/03/20 07:46:33;;;;;;;21.38;14.82;;;;;;;4.81;49.68;102618.91;5037759;28;20037;-85
2022/03/20 07:49:00;;;;;;;21.67;15.10;;;;;;;4.77;49.40;102620.16;5055992;28;20082;-85
2022/03/20 07:51:26;;;;;;;21.17;13.63;;;;;;;4.74;49.30;102614.06;5055658;28;20037;-85
2022/03/20 07:53:51;;;;;;;18.80;12.90;;;;;;;4.77;49.57;102610.25;5037821;28;20037;-84
2022/03/20 07:56:21;;;;;;;19.98;13.55;;;;;;;4.81;49.21;102608.13;5055320;28;20063;-85
2022/03/20 07:58:46;;;;;;;18.75;13.25;;;;;;;4.94;49.44;102618.69;5022229;28;20029;-84
2022/03/20 08:01:12;;;;;;;19.98;13.27;;;;;;;4.92;49.19;102616.13;5037474;28;20043;-84
2022/03/20 08:03:38;;;;;;;21.85;15.32;;;;;;;4.95;48.69;102607.78;5037439;28;20029;-84
2022/03/20 08:06:04;;;;;;;20.60;14.40;;;;;;;4.98;49.28;102602.13;5020785;28;20037;-85
2022/03/20 08:08:29;;;;;;;18.92;12.90;;;;;;;4.97;48.89;102608.50;5055344;28;20036;-85
2022/03/20 08:10:55;;;;;;;20.08;13.50;;;;;;;4.98;48.92;102601.28;5055278;28;20039;-85
2022/03/20 08:13:20;;;;;;;19.23;13.23;;;;;;;5.01;48.86;102609.94;5021618;28;20069;-84
2022/03/20 08:15:46;;;;;;;18.65;12.38;;;;;;;5.05;48.67;102605.16;5037676;28;20385;-84
2022/03/20 08:18:11;;;;;;;18.20;12.43;;;;;;;5.09;48.60;102603.88;5037399;28;20072;-84
2022/03/20 08:20:39;;;;;;;19.75;12.30;;;;;;;5.19;48.58;102609.28;5037132;28;20037;-85
2022/03/20 08:23:04;;;;;;;18.02;12.13;;;;;;;5.25;48.81;102612.28;5021124;28;20068;-84
2022/03/20 08:25:29;;;;;;;18.85;13.07;;;;;;;5.28;48.20;102608.47;5020672;28;20123;-85
2022/03/20 08:27:55;;;;;;;19.23;12.85;;;;;;;5.30;47.87;102593.03;5037259;28;20346;-85
2022/03/20 08:30:21;;;;;;;19.98;13.35;;;;;;;5.34;47.76;102597.13;5037474;28;20381;-85
2022/03/20 08:32:47;;;;;;;17.13;12.52;;;;;;;5.41;46.88;102587.53;5054886;28;20036;-85
2022/03/20 08:35:14;;;;;;;15.95;11.52;;;;;;;5.52;47.36;102581.19;5037471;28;20037;-85
2022/03/20 08:37:44;;;;;;;16.95;11.82;;;;;;;5.61;47.16;102595.66;5055238;28;20067;-85
2022/03/20 08:40:19;;;;;;;17.60;12.15;;;;;;;5.66;47.25;102584.47;5037130;28;20025;-85
2022/03/20 08:42:45;;;;;;;18.52;12.73;;;;;;;5.65;46.16;102585.44;5054792;28;20036;-84
2022/03/20 08:45:12;;;;;;;16.23;11.35;;;;;;;5.62;47.16;102583.88;5054520;28;20115;-85
2022/03/20 08:47:39;;;;;;;17.30;11.60;;;;;;;5.55;46.43;102583.59;5019724;28;20029;-85
2022/03/20 08:50:05;;;;;;;16.88;11.32;;;;;;;5.54;46.22;102584.56;5054027;28;20400;-85
2022/03/20 08:52:31;;;;;;;15.85;10.80;;;;;;;5.58;46.49;102587.81;5054054;28;20131;-85
2022/03/20 08:54:56;;;;;;;15.38;10.32;;;;;;;5.63;46.56;102581.03;5036756;28;20053;-85
2022/03/20 08:57:25;;;;;;;14.57;10.55;;;;;;;5.71;46.49;102593.78;5054640;28;20040;-85
2022/03/20 08:59:50;;;;;;;15.07;10.88;;;;;;;5.82;46.65;102595.53;5037576;28;20025;-85
2022/03/20 09:02:16;;;;;;;18.35;11.82;;;;;;;5.93;46.17;102587.28;5054829;28;20124;-85
2022/03/20 09:04:41;;;;;;;19.00;12.93;;;;;;;5.94;45.26;102588.16;5036303;28;20044;-85
2022/03/20 09:07:06;;;;;;;17.75;11.55;;;;;;;5.96;46.50;102586.16;5036256;28;20048;-85
2022/03/20 09:09:32;;;;;;;16.83;11.40;;;;;;;6.01;45.83;102574.97;5054397;28;20477;-85
2022/03/20 09:11:57;;;;;;;18.73;11.63;;;;;;;6.10;44.98;102574.13;5003800;28;20128;-85
2022/03/20 09:14:23;;;;;;;18.92;12.88;;;;;;;6.36;44.79;102568.13;5036637;28;20033;-85
2022/03/20 09:19:32;;;;;;;16.52;11.93;;;;;;;7.24;43.21;102557.00;5053778;28;20174;-85
2022/03/20 09:21:57;;;;;;;16.83;11.85;;;;;;;7.80;42.40;102549.63;5019537;28;20063;-85
2022/03/20 09:24:23;;;;;;;15.75;11.10;;;;;;;8.36;43.22;102551.06;5035823;28;20040;-85
2022/03/20 09:26:48;;;;;;;17.02;10.80;;;;;;;8.75;41.20;102536.25;5035704;28;20112;-85
2022/03/20 09:29:16;;;;;;;15.70;10.77;;;;;;;8.91;40.68;102530.06;5035893;28;20037;-85
2022/03/20 09:31:41;;;;;;;18.27;12.23;;;;;;;8.91;39.67;102524.66;5019950;28;20436;-85
2022/03/20 09:34:07;;;;;;;16.08;11.63;;;;;;;8.77;40.27;102526.13;5053526;28;20487;-85
2022/03/20 09:36:32;;;;;;;18.50;13.13;;;;;;;8.58;40.67;102522.63;5035729;28;20039;-85
2022/03/20 09:38:58;;;;;;;17.88;12.00;;;;;;;8.41;40.50;102526.22;5019211;28;20064;-85
2022/03/20 09:41:32;;;;;;;17.73;12.57;;;;;;;8.34;40.74;102523.34;5036251;28;20036;-85
2022/03/20 09:43:57;;;;;;;16.70;11.85;;;;;;;8.45;40.48;102499.75;5035982;28;20029;-85
2022/03/20 09:46:25;;;;;;;17.05;11.80;;;;;;;8.77;40.08;102502.59;5035901;28;20110;-85
2022/03/20 09:48:53;;;;;;;15.13;10.38;;;;;;;9.04;40.20;102514.19;5035274;28;20139;-85
2022/03/20 09:51:18;;;;;;;15.15;11.10;;;;;;;9.37;39.78;102497.19;5053503;28;20107;-85
2022/03/20 09:53:44;;;;;;;15.10;10.70;;;;;;;9.71;38.99;102507.03;5054009;28;20456;-85
2022/03/20 09:56:11;;;;;;;17.77;12.40;;;;;;;9.86;38.26;102493.66;5035392;28;20077;-86
2022/03/20 09:58:36;;;;;;;17.50;12.43;;;;;;;9.97;38.63;102504.16;5035742;28;20033;-85
2022/03/20 10:01:02;;;;;;;19.10;13.25;;;;;;;10.12;37.75;102515.16;5053639;28;20145;-86
2022/03/20 10:03:28;;;;;;;19.90;12.32;;;;;;;10.12;38.65;102509.72;5052301;28;20025;-85
2022/03/20 10:06:17;;;;;;;17.55;12.13;;;;;;;10.03;38.64;102510.75;5053644;28;20098;-85
2022/03/20 10:08:55;;;;;;;18.58;13.27;;;;;;;9.83;38.57;102509.25;5036380;28;20040;-85
2022/03/20 10:11:20;;;;;;;19.10;13.18;;;;;;;9.70;38.26;102508.03;5035422;28;20040;-85
2022/03/20 10:14:04;;;;;;;20.92;14.20;;;;;;;9.74;39.02;102512.13;5035266;28;20033;-85
2022/03/20 10:16:30;;;;;;;20.10;13.48;;;;;;;9.77;38.34;102514.50;5035365;28;20032;-85
2022/03/20 10:18:55;;;;;;;22.02;14.80;;;;;;;9.82;38.61;102501.28;5035084;28;20123;-85
2022/03/20 10:21:20;;;;;;;20.73;14.13;;;;;;;9.78;38.46;102510.78;5035411;28;20037;-85
2022/03/20 10:23:46;;;;;;;20.20;14.13;;;;;;;9.74;38.20;102509.41;5035464;28;20025;-85
2022/03/20 10:26:13;;;;;;;21.58;15.57;;;;;;;9.56;38.54;102498.72;5034845;28;20117;-86
2022/03/20 10:28:41;;;;;;;22.70;16.48;;;;;;;9.41;39.17;102503.97;5035221;28;20040;-86
2022/03/20 10:31:09;;;;;;;25.65;17.20;;;;;;;9.44;38.82;102490.91;5051896;28;20025;-85
2022/03/20 10:33:38;;;;;;;23.38;16.65;;;;;;;9.69;38.44;102492.81;5051889;28;20036;-85
2022/03/20 10:36:23;;;;;;;23.25;17.67;;;;;;;10.17;38.56;102486.50;5034851;28;20130;-85
2022/03/20 10:38:49;;;;;;;27.50;19.45;;;;;;;10.67;37.62;102499.94;5036142;28;20453;-85
2022/03/20 10:41:28;;;;;;;24.25;18.63;;;;;;;11.12;38.46;102492.09;5053006;28;20108;-85
2022/03/20 10:43:56;;;;;;;25.25;19.42;;;;;;;11.26;39.24;102494.03;5053274;28;20033;-86
2022/03/20 10:46:29;;;;;;;23.67;19.00;;;;;;;11.37;39.42;102500.94;5035389;28;20037;-85
2022/03/20 10:48:56;;;;;;;25.55;18.42;;;;;;;11.23;39.63;102486.25;5052788;28;20079;-85
2022/03/20 10:51:38;;;;;;;24.95;19.23;;;;;;;11.28;39.68;102493.84;5035037;28;20033;-85
2022/03/20 10:54:25;;;;;;;25.10;19.08;;;;;;;11.23;39.79;102500.69;5036027;28;20060;-86
2022/03/20 10:56:56;;;;;;;23.17;17.67;;;;;;;11.13;40.25;102505.50;5051321;28;20489;-86
2022/03/20 10:59:23;;;;;;;23.30;17.03;;;;;;;11.09;40.70;102495.16;5052869;28;20036;-86
2022/03/20 11:01:49;;;;;;;23.33;18.05;;;;;;;11.20;41.05;102506.47;5052367;28;20037;-85
2022/03/20 11:04:16;;;;;;;22.27;17.42;;;;;;;11.40;40.85;102506.84;5052696;28;20438;-86
2022/03/20 11:06:43;;;;;;;26.00;19.83;;;;;;;11.56;41.77;102508.63;5052826;28;20039;-86
2022/03/20 11:09:09;;;;;;;24.27;18.77;;;;;;;11.33;42.31;102511.31;5035104;28;20072;-86
2022/03/20 11:11:39;;;;;;;24.60;19.90;;;;;;;11.19;42.74;102518.38;5052712;28;20064;-85
2022/03/20 11:14:05;;;;;;;22.60;18.65;;;;;;;10.95;43.89;102522.03;5053055;28;20083;-85
2022/03/20 11:16:38;;;;;;;25.90;19.63;;;;;;;10.88;43.56;102523.81;5021779;28;20472;-86
2022/03/20 11:19:05;;;;;;;;;;;;;;;10.67;43.87;102519.81;5056711;28;20033;-86
2022/03/20 11:21:34;;;;;;;24.88;19.10;;;;;;;10.42;44.78;102535.28;5056319;28;20357;-86
2022/03/20 11:24:01;;;;;;;26.33;19.70;;;;;;;10.24;44.87;102523.78;5062076;28;20029;-85
2022/03/20 11:26:28;;;;;;;23.63;18.27;;;;;;;10.08;46.06;102521.94;5038800;28;20033;-86
2022/03/20 11:29:00;;;;;;;23.60;18.27;;;;;;;9.96;46.18;102516.00;5055811;28;20053;-86
2022/03/20 11:31:26;;;;;;;23.25;18.25;;;;;;;9.79;47.00;102523.31;5056457;28;20028;-86
2022/03/20 11:33:54;;;;;;;23.63;17.48;;;;;;;9.71;46.98;102518.72;5021987;28;20111;-85
2022/03/20 11:36:20;;;;;;;23.80;18.23;;;;;;;9.70;46.84;102525.16;5022128;28;20437;-85
2022/03/20 11:39:11;;;;;;;24.92;18.58;;;;;;;9.61;46.93;102520.75;5056009;28;20040;-86
2022/03/20 11:41:38;;;;;;;23.63;17.93;;;;;;;9.46;47.99;102516.00;5037580;28;20041;-86
2022/03/20 11:44:22;;;;;;;22.77;18.05;;;;;;;9.40;47.29;102519.34;5037902;28;20107;-86
2022/03/20 11:47:12;;;;;;;23.00;17.55;;;;;;;9.28;47.51;102532.38;5054439;28;20039;-85
2022/03/20 11:49:39;;;;;;;21.88;17.40;;;;;;;9.24;47.77;102532.88;5055705;28;20096;-86
2022/03/20 11:52:11;;;;;;;22.10;16.65;;;;;;;9.24;48.71;102539.16;5055359;28;20029;-85
2022/03/20 11:54:39;;;;;;;21.83;16.17;;;;;;;9.34;47.88;102520.03;5055912;28;20028;-85